createdAt,value
2022-08-17T00:02:26.877Z,17.61
2022-08-17T00:04:55.805Z,17.60
2022-08-17T00:07:23.191Z,17.52
2022-08-17T00:09:49.853Z,17.52
2022-08-17T00:12:42.721Z,17.42
2022-08-17T00:15:08.302Z,17.30
2022-08-17T00:17:40.673Z,17.28
2022-08-17T00:20:08.298Z,17.27
2022-08-17T00:22:36.712Z,17.22
2022-08-17T00:25:18.364Z,17.17
2022-08-17T00:27:45.613Z,17.10
2022-08-17T00:30:13.234Z,17.02
2022-08-17T00:33:12.396Z,17.09
2022-08-17T00:35:29.751Z,16.77
2022-08-17T00:37:57.227Z,17.02
2022-08-17T00:40:24.736Z,16.92
2022-08-17T00:42:54.841Z,16.81
2022-08-17T00:45:24.185Z,16.93
2022-08-17T00:47:50.822Z,16.93
2022-08-17T00:50:19.496Z,16.90
2022-08-17T00:52:55.006Z,16.87
2022-08-17T00:55:24.211Z,16.84
2022-08-17T00:57:55.607Z,16.80
2022-08-17T01:00:27.168Z,16.69
2022-08-17T01:03:08.568Z,16.75
2022-08-17T01:05:42.173Z,16.72
2022-08-17T01:08:13.226Z,16.70
2022-08-17T01:10:58.587Z,16.58
2022-08-17T01:13:39.763Z,16.61
2022-08-17T01:16:32.028Z,16.66
2022-08-17T01:19:02.180Z,16.64
2022-08-17T01:22:13.103Z,16.65
2022-08-17T01:24:43.228Z,16.61
2022-08-17T01:27:10.947Z,16.60
2022-08-17T01:29:42.065Z,16.63
2022-08-17T01:32:09.494Z,16.63
2022-08-17T01:34:42.909Z,16.45
2022-08-17T01:37:13.571Z,16.65
2022-08-17T01:39:54.010Z,16.63
2022-08-17T01:42:39.606Z,16.63
2022-08-17T01:45:18.479Z,16.62
2022-08-17T01:47:46.852Z,16.57
2022-08-17T01:50:18.265Z,16.60
2022-08-17T01:52:46.348Z,16.61
2022-08-17T01:55:19.132Z,16.52
2022-08-17T01:57:46.220Z,16.55
2022-08-17T02:00:14.260Z,16.57
2022-08-17T02:02:41.433Z,16.56
2022-08-17T02:05:08.645Z,16.58
2022-08-17T02:07:59.919Z,16.50
2022-08-17T02:10:24.337Z,16.58
2022-08-17T02:13:01.633Z,16.50
2022-08-17T02:15:28.727Z,16.56
2022-08-17T02:17:55.373Z,16.60
2022-08-17T02:20:41.863Z,16.64
2022-08-17T02:23:11.934Z,16.63
2022-08-17T02:25:43.475Z,16.69
2022-08-17T02:28:10.937Z,16.66
2022-08-17T02:31:00.691Z,16.71
2022-08-17T02:33:24.945Z,16.77
2022-08-17T02:36:11.944Z,16.71
2022-08-17T02:38:39.994Z,16.74
2022-08-17T02:41:06.840Z,16.80
2022-08-17T02:43:33.623Z,16.76
2022-08-17T02:46:00.733Z,16.72
2022-08-17T02:48:28.015Z,16.82
2022-08-17T02:50:58.193Z,16.77
2022-08-17T02:53:25.582Z,16.84
2022-08-17T02:55:53.167Z,16.87
2022-08-17T02:58:34.454Z,16.84
2022-08-17T03:01:05.472Z,16.89
2022-08-17T03:03:32.528Z,16.75
2022-08-17T03:05:59.171Z,16.92
2022-08-17T03:08:25.960Z,16.92
2022-08-17T03:10:53.252Z,17.01
2022-08-17T03:13:20.175Z,17.00
2022-08-17T03:15:48.525Z,17.10
2022-08-17T03:18:24.628Z,17.11
2022-08-17T03:20:54.834Z,17.05
2022-08-17T03:23:24.299Z,17.11
2022-08-17T03:25:53.797Z,17.15
2022-08-17T03:28:21.859Z,17.04
2022-08-17T03:30:49.117Z,17.14
2022-08-17T03:33:17.728Z,17.22
2022-08-17T03:35:44.459Z,17.19
2022-08-17T03:38:12.701Z,17.26
2022-08-17T03:40:56.820Z,17.23
2022-08-17T14:32:42.896Z,36.79
2022-08-17T14:35:12.798Z,36.79
2022-08-17T14:37:39.631Z,36.43
2022-08-17T14:40:09.270Z,36.02
2022-08-17T14:42:38.236Z,35.72
2022-08-17T14:45:29.839Z,35.69
2022-08-17T14:47:55.281Z,35.27
2022-08-17T14:50:22.559Z,35.78
2022-08-17T14:52:50.648Z,35.44
2022-08-17T14:55:23.689Z,34.96
2022-08-17T14:57:50.414Z,34.34
2022-08-17T15:00:17.534Z,34.33
2022-08-17T15:02:56.705Z,34.27
2022-08-17T15:05:26.604Z,34.18
2022-08-17T15:07:53.736Z,33.69
2022-08-17T15:10:21.927Z,33.35
2022-08-17T15:12:49.100Z,33.05
2022-08-17T15:15:17.351Z,32.98
2022-08-17T15:17:46.270Z,32.81
2022-08-17T15:20:16.484Z,32.85
2022-08-17T15:22:44.852Z,32.79
2022-08-17T15:25:12.315Z,32.40
2022-08-17T15:27:40.454Z,31.68
2022-08-17T15:30:09.947Z,31.26
2022-08-17T15:32:40.673Z,31.02
2022-08-17T15:35:11.817Z,30.50
2022-08-17T15:37:40.233Z,29.94
2022-08-17T15:40:09.458Z,29.55
2022-08-17T15:42:36.525Z,29.28
2022-08-17T15:45:11.021Z,28.89
2022-08-17T15:47:38.616Z,28.44
2022-08-17T15:50:07.884Z,28.29
2022-08-17T15:52:41.052Z,28.12
2022-08-17T15:55:12.135Z,27.83
2022-08-17T15:58:22.368Z,27.66
2022-08-17T16:01:18.338Z,27.34
2022-08-17T16:04:03.954Z,27.00
2022-08-17T16:06:31.955Z,26.91
2022-08-17T16:09:00.093Z,26.74
2022-08-17T16:11:27.121Z,26.56
2022-08-17T16:13:54.704Z,26.45
2022-08-17T16:16:25.396Z,26.29
2022-08-17T16:18:53.698Z,26.12
2022-08-17T16:21:26.802Z,25.95
2022-08-17T16:24:01.908Z,25.72
2022-08-17T16:26:31.195Z,25.53
2022-08-17T16:29:00.449Z,25.31
2022-08-17T16:31:27.748Z,25.18
2022-08-17T16:34:03.873Z,24.95
2022-08-17T16:36:53.568Z,24.73
2022-08-17T16:39:26.358Z,24.62
2022-08-17T16:41:53.069Z,24.41
2022-08-17T16:44:21.853Z,24.31
2022-08-17T16:46:50.546Z,24.16
2022-08-17T16:49:31.559Z,24.06
2022-08-17T16:52:07.717Z,23.93
2022-08-17T16:54:35.594Z,23.76
2022-08-17T16:57:05.149Z,23.70
2022-08-17T16:59:39.603Z,23.56
2022-08-17T17:02:12.224Z,23.49
2022-08-17T17:05:04.830Z,23.37
2022-08-17T17:07:49.762Z,23.21
2022-08-17T17:10:24.022Z,23.17
2022-08-17T17:13:03.535Z,23.07
2022-08-17T17:15:45.338Z,22.82
2022-08-17T17:18:15.332Z,22.82
2022-08-17T17:20:55.986Z,22.71
2022-08-17T17:23:55.683Z,22.65
2022-08-17T17:27:00.301Z,22.52
2022-08-17T17:29:59.973Z,22.40
2022-08-17T17:32:39.260Z,22.31
2022-08-17T17:35:31.869Z,22.27
2022-08-17T17:38:05.117Z,22.20
2022-08-17T17:40:45.081Z,22.12
2022-08-17T17:43:37.558Z,22.05
2022-08-17T17:46:28.033Z,22.01
2022-08-17T17:48:58.981Z,21.86
2022-08-17T17:52:07.850Z,21.86
2022-08-17T17:55:13.302Z,21.75
2022-08-17T17:57:44.239Z,21.65
2022-08-17T18:00:46.560Z,21.64
2022-08-17T18:03:32.325Z,21.54
2022-08-17T18:06:21.874Z,21.51
2022-08-17T18:08:52.072Z,21.42
2022-08-17T18:11:25.109Z,21.34
2022-08-17T18:14:20.584Z,21.33
2022-08-17T18:16:53.313Z,21.30
2022-08-17T18:19:20.758Z,21.27
2022-08-17T18:22:03.861Z,21.07
2022-08-17T18:24:37.881Z,21.15
2022-08-17T18:27:21.218Z,21.08
2022-08-17T18:29:49.785Z,21.03
2022-08-17T18:32:26.669Z,20.99
2022-08-17T18:35:11.216Z,20.92
2022-08-17T18:37:47.751Z,20.89
2022-08-17T18:40:17.244Z,20.86
2022-08-17T18:43:01.451Z,20.81
2022-08-17T18:45:34.035Z,20.77
2022-08-17T18:48:01.532Z,20.71
2022-08-17T18:50:37.916Z,20.69
2022-08-17T18:53:30.214Z,20.65
2022-08-17T18:56:38.470Z,20.60
2022-08-17T18:59:21.631Z,20.55
2022-08-17T19:02:23.154Z,20.41
2022-08-17T19:05:06.274Z,20.37
2022-08-17T19:07:40.419Z,20.37
2022-08-17T19:10:18.198Z,20.29
2022-08-17T19:13:23.965Z,20.28
2022-08-17T19:16:20.433Z,20.24
2022-08-17T19:18:53.129Z,20.17
2022-08-17T19:21:47.664Z,20.15
2022-08-17T19:24:20.304Z,20.09
2022-08-17T19:26:56.602Z,19.83
2022-08-17T19:29:45.895Z,19.95
2022-08-17T19:32:17.312Z,19.93
2022-08-17T19:34:44.789Z,19.88
2022-08-17T19:37:52.670Z,19.83
2022-08-17T19:40:54.599Z,19.78
2022-08-17T19:43:40.794Z,19.75
2022-08-17T19:46:26.173Z,19.72
2022-08-17T19:49:07.351Z,19.67
2022-08-17T19:51:45.514Z,19.43
2022-08-17T19:54:27.209Z,19.59
2022-08-17T19:57:07.539Z,19.53
2022-08-17T19:59:49.052Z,19.49
2022-08-17T20:02:33.591Z,19.45
2022-08-17T20:05:07.264Z,19.47
2022-08-17T20:07:58.716Z,19.47
2022-08-17T20:10:48.073Z,19.45
2022-08-17T20:13:33.551Z,19.42
2022-08-17T20:16:01.252Z,19.33
2022-08-17T20:18:38.374Z,19.40
2022-08-17T20:21:19.917Z,19.38
2022-08-17T20:24:05.842Z,19.35
2022-08-17T20:26:55.190Z,19.30
2022-08-17T20:29:40.396Z,19.34
2022-08-17T20:32:23.609Z,19.32
2022-08-17T20:35:05.036Z,19.29
2022-08-17T20:37:35.442Z,19.25
2022-08-17T20:40:05.847Z,19.19
2022-08-17T20:42:33.967Z,19.11
2022-08-17T20:45:26.621Z,19.12
2022-08-17T20:48:36.111Z,19.11
2022-08-17T20:50:59.191Z,19.05
2022-08-17T20:53:47.310Z,19.00
2022-08-17T20:56:51.637Z,18.90
2022-08-17T20:59:21.287Z,18.88
2022-08-17T21:02:12.446Z,18.85
2022-08-17T21:04:52.889Z,18.80
2022-08-17T21:07:54.475Z,18.76
2022-08-17T21:10:24.152Z,18.72
2022-08-17T21:12:50.714Z,18.69
2022-08-17T21:15:50.207Z,18.48
2022-08-17T21:18:38.643Z,18.64
2022-08-17T21:21:46.514Z,18.60
2022-08-17T21:24:35.171Z,18.54
2022-08-17T21:27:10.907Z,18.51
2022-08-17T21:29:52.556Z,18.45
2022-08-17T21:32:30.180Z,18.40
2022-08-17T21:35:06.870Z,18.37
2022-08-17T21:37:40.709Z,18.33
2022-08-17T21:40:10.359Z,18.29
2022-08-17T21:42:48.576Z,18.27
2022-08-17T21:45:20.985Z,18.24
2022-08-17T21:47:52.810Z,18.20
2022-08-17T21:50:25.110Z,18.17
2022-08-17T21:52:56.805Z,18.10
2022-08-17T21:55:28.629Z,18.12
2022-08-17T21:58:13.884Z,18.09
2022-08-17T22:00:44.179Z,18.07
2022-08-17T22:03:24.737Z,18.03
2022-08-17T22:05:51.730Z,18.02
2022-08-17T22:08:25.792Z,18.02
2022-08-17T22:11:01.266Z,18.01
2022-08-17T22:13:29.688Z,18.01
2022-08-17T22:16:28.876Z,18.00
2022-08-17T22:18:58.247Z,17.94
2022-08-17T22:21:25.766Z,17.89
2022-08-17T22:24:21.694Z,17.88
2022-08-17T22:27:07.706Z,17.86
2022-08-17T22:30:00.429Z,17.80
2022-08-17T22:32:48.353Z,17.61
2022-08-17T22:35:35.396Z,17.74
2022-08-17T22:38:20.248Z,17.70
2022-08-17T22:41:07.943Z,17.66
2022-08-17T22:43:38.691Z,17.63
2022-08-17T22:46:12.627Z,17.61
2022-08-17T22:48:48.642Z,17.60
2022-08-17T22:51:20.968Z,17.58
2022-08-17T22:54:10.321Z,17.57
2022-08-17T22:56:56.599Z,17.54
2022-08-17T22:59:46.295Z,17.52
2022-08-17T23:02:14.961Z,17.48
2022-08-17T23:04:47.733Z,17.49
2022-08-17T23:07:15.895Z,17.46
2022-08-17T23:09:42.793Z,17.43
2022-08-17T23:12:13.666Z,17.35
2022-08-17T23:14:42.531Z,17.39
2022-08-17T23:17:09.201Z,17.36
2022-08-17T23:19:36.008Z,17.34
2022-08-17T23:22:06.895Z,17.31
2022-08-17T23:24:39.299Z,17.25
2022-08-17T23:27:07.654Z,17.25
2022-08-17T23:29:35.130Z,17.22
2022-08-17T23:32:04.799Z,17.21
2022-08-17T23:34:31.570Z,17.16
2022-08-17T23:36:58.225Z,16.97
2022-08-17T23:39:28.199Z,17.12
2022-08-17T23:42:01.054Z,17.04
2022-08-17T23:44:28.979Z,17.05
2022-08-17T23:46:56.803Z,17.00
2022-08-17T23:49:25.290Z,16.96
2022-08-17T23:51:54.826Z,16.92
2022-08-17T23:54:29.980Z,16.91
2022-08-17T23:56:56.711Z,16.86
2022-08-17T23:59:23.621Z,16.81
